createdAt,value
2023-01-28T00:01:17.922Z,87.35
2023-01-28T00:03:45.069Z,88.20
2023-01-28T00:06:14.516Z,88.70
2023-01-28T00:08:41.867Z,88.52
2023-01-28T00:11:11.859Z,87.10
2023-01-28T00:13:39.307Z,85.87
2023-01-28T00:16:08.122Z,85.32
2023-01-28T00:18:35.230Z,86.51
2023-01-28T00:21:13.123Z,85.21
2023-01-28T00:23:41.490Z,85.41
2023-01-28T00:26:11.744Z,84.56
2023-01-28T00:28:42.920Z,87.30
2023-01-28T00:31:12.860Z,87.45
2023-01-28T00:33:39.474Z,86.12
2023-01-28T00:36:07.436Z,85.07
2023-01-28T00:38:34.436Z,84.68
2023-01-28T00:41:13.220Z,85.46
2023-01-28T00:43:40.439Z,83.72
2023-01-28T00:46:10.148Z,84.27
2023-01-28T00:48:38.029Z,83.78
2023-01-28T00:51:07.135Z,83.44
2023-01-28T00:53:34.465Z,84.21
2023-01-28T00:56:01.140Z,84.14
2023-01-28T00:58:27.897Z,84.53
2023-01-28T01:00:54.587Z,83.01
2023-01-28T01:03:21.310Z,83.19
2023-01-28T01:05:48.136Z,83.07
2023-01-28T01:08:14.841Z,82.67
2023-01-28T01:10:41.512Z,82.83
2023-01-28T01:13:08.688Z,83.57
2023-01-28T01:15:35.421Z,83.18
2023-01-28T01:18:03.350Z,82.94
2023-01-28T01:20:30.251Z,83.32
2023-01-28T01:22:57.003Z,84.06
2023-01-28T01:25:23.761Z,83.63
2023-01-28T01:27:50.822Z,83.09
2023-01-28T01:30:18.038Z,82.59
2023-01-28T01:32:44.751Z,82.56
2023-01-28T01:35:11.458Z,83.32
2023-01-28T01:37:39.506Z,82.83
2023-01-28T01:40:08.001Z,82.97
2023-01-28T01:42:34.776Z,83.80
2023-01-28T01:45:14.764Z,84.07
2023-01-28T01:47:49.142Z,82.71
2023-01-28T01:50:38.107Z,82.68
2023-01-28T01:53:10.649Z,82.65
2023-01-28T01:55:41.186Z,83.43
2023-01-28T01:58:13.524Z,82.49
2023-01-28T02:00:42.076Z,82.46
2023-01-28T02:03:10.836Z,83.30
2023-01-28T02:05:39.061Z,83.75
2023-01-28T02:08:06.186Z,83.96
2023-01-28T02:10:33.401Z,85.50
2023-01-28T02:13:00.119Z,84.98
2023-01-28T02:15:27.108Z,84.43
2023-01-28T02:17:54.649Z,82.64
2023-01-28T02:20:42.406Z,83.53
2023-01-28T02:23:27.648Z,83.12
2023-01-28T02:26:10.653Z,83.51
2023-01-28T02:28:52.400Z,84.05
2023-01-28T02:31:27.348Z,83.04
2023-01-28T02:34:19.507Z,82.67
2023-01-28T02:36:50.505Z,82.11
2023-01-28T02:39:23.536Z,82.38
2023-01-28T02:41:56.475Z,82.14
2023-01-28T02:44:24.056Z,83.11
2023-01-28T02:46:53.272Z,82.63
2023-01-28T02:49:33.464Z,82.02
2023-01-28T02:52:32.731Z,83.40
2023-01-28T02:55:17.908Z,82.69
2023-01-28T02:58:04.824Z,82.86
2023-01-28T03:00:56.292Z,82.53
2023-01-28T03:03:33.717Z,82.96
2023-01-28T03:06:08.608Z,82.07
2023-01-28T03:08:45.147Z,81.86
2023-01-28T03:11:11.871Z,82.10
2023-01-28T03:13:39.519Z,81.51
2023-01-28T03:16:07.199Z,82.23
2023-01-28T03:18:47.043Z,83.71
2023-01-28T03:21:34.744Z,83.08
2023-01-28T03:24:30.586Z,83.01
2023-01-28T03:27:10.739Z,82.47
2023-01-28T03:29:41.959Z,82.57
2023-01-28T03:32:12.386Z,81.85
2023-01-28T03:34:39.653Z,82.43
2023-01-28T03:37:08.065Z,84.46
2023-01-28T03:39:38.145Z,83.08
2023-01-28T03:42:07.412Z,82.52
2023-01-28T03:44:36.648Z,81.52
2023-01-28T03:47:03.841Z,80.47
2023-01-28T03:49:30.762Z,80.44
2023-01-28T03:51:57.545Z,79.99
2023-01-28T03:54:24.358Z,79.42
2023-01-28T03:56:51.287Z,79.58
2023-01-28T03:59:17.958Z,80.18
2023-01-28T04:01:44.770Z,79.74
2023-01-28T04:04:12.384Z,79.25
2023-01-28T04:06:39.382Z,80.42
2023-01-28T04:09:31.691Z,81.82
2023-01-28T04:12:16.487Z,81.63
2023-01-28T04:14:49.123Z,82.77
2023-01-28T04:17:24.445Z,81.95
2023-01-28T04:19:51.177Z,80.61
2023-01-28T04:22:18.758Z,82.48
2023-01-28T04:24:45.556Z,82.31
2023-01-28T04:27:12.229Z,81.25
2023-01-28T04:29:38.912Z,79.90
2023-01-28T04:32:24.043Z,79.84
2023-01-28T04:35:08.444Z,79.78
2023-01-28T04:37:49.949Z,80.07
2023-01-28T04:40:40.068Z,80.58
2023-01-28T04:43:10.966Z,80.76
2023-01-28T04:45:49.518Z,80.44
2023-01-28T04:48:25.724Z,79.87
2023-01-28T04:51:07.094Z,79.86
2023-01-28T04:53:56.440Z,79.54
2023-01-28T04:56:26.229Z,79.71
2023-01-28T04:58:53.325Z,80.34
2023-01-28T05:01:20.096Z,79.66
2023-01-28T05:03:47.171Z,78.89
2023-01-28T05:06:21.712Z,78.39
2023-01-28T05:08:50.716Z,78.14
2023-01-28T05:11:17.622Z,78.34
2023-01-28T05:13:47.163Z,78.22
2023-01-28T05:16:14.076Z,78.21
2023-01-28T05:18:40.803Z,78.19
2023-01-28T05:21:14.401Z,78.33
2023-01-28T05:23:41.141Z,78.17
2023-01-28T05:26:07.757Z,77.84
2023-01-28T05:28:34.782Z,77.74
2023-01-28T05:31:06.395Z,77.64
2023-01-28T05:33:33.537Z,77.35
2023-01-28T05:36:00.827Z,77.35
2023-01-28T05:38:28.270Z,77.48
2023-01-28T05:40:54.894Z,76.64
2023-01-28T05:43:22.396Z,76.33
2023-01-28T05:46:08.672Z,77.26
2023-01-28T05:48:55.669Z,76.04
2023-01-28T05:51:42.456Z,76.30
2023-01-28T05:54:11.081Z,76.35
2023-01-28T05:56:37.705Z,75.70
2023-01-28T05:59:04.779Z,75.69
2023-01-28T06:01:32.025Z,76.35
2023-01-28T06:03:58.995Z,76.45
2023-01-28T06:06:28.638Z,77.13
2023-01-28T06:08:55.433Z,76.85
2023-01-28T06:11:27.984Z,76.36
2023-01-28T06:13:59.969Z,75.55
2023-01-28T06:16:41.875Z,75.29
2023-01-28T06:19:35.820Z,75.37
2023-01-28T06:22:02.897Z,75.45
2023-01-28T06:24:31.171Z,76.31
2023-01-28T06:26:58.763Z,75.45
2023-01-28T06:29:25.409Z,75.21
2023-01-28T06:31:52.488Z,75.03
2023-01-28T06:34:19.614Z,75.24
2023-01-28T06:36:46.372Z,74.57
2023-01-28T06:39:13.115Z,73.94
2023-01-28T06:41:39.874Z,74.71
2023-01-28T06:44:06.580Z,74.25
2023-01-28T06:46:34.946Z,73.91
2023-01-28T06:49:01.988Z,73.01
2023-01-28T06:51:28.725Z,73.43
2023-01-28T06:53:55.358Z,73.20
2023-01-28T06:56:26.499Z,72.95
2023-01-28T06:58:53.588Z,73.21
2023-01-28T07:01:20.484Z,72.76
2023-01-28T07:03:47.257Z,74.08
2023-01-28T07:06:14.100Z,73.09
2023-01-28T07:08:40.733Z,73.62
2023-01-28T07:11:07.916Z,72.91
2023-01-28T07:13:35.959Z,73.12
2023-01-28T07:16:02.743Z,73.38
2023-01-28T07:18:30.134Z,72.88
2023-01-28T07:20:57.182Z,73.69
2023-01-28T07:23:23.965Z,73.57
2023-01-28T07:25:51.178Z,73.45
2023-01-28T07:28:17.930Z,73.88
2023-01-28T07:30:44.727Z,73.37
2023-01-28T07:33:11.450Z,73.35
2023-01-28T07:35:38.269Z,72.24
2023-01-28T07:38:04.942Z,72.79
2023-01-28T07:40:31.670Z,72.85
2023-01-28T07:42:58.407Z,72.56
2023-01-28T07:45:27.031Z,72.50
2023-01-28T07:47:55.798Z,72.85
2023-01-28T07:50:22.990Z,74.04
2023-01-28T07:52:49.629Z,72.87
2023-01-28T07:55:16.678Z,74.32
2023-01-28T07:57:53.290Z,74.71
2023-01-28T08:00:22.153Z,74.37
2023-01-28T08:02:49.551Z,73.96
2023-01-28T08:05:21.338Z,73.51
2023-01-28T08:07:49.253Z,73.08
2023-01-28T08:10:17.873Z,72.94
2023-01-28T08:12:55.070Z,73.50
2023-01-28T08:15:22.334Z,73.32
2023-01-28T08:17:48.945Z,73.35
2023-01-28T08:20:16.244Z,74.32
2023-01-28T08:22:43.100Z,74.19
2023-01-28T08:25:10.007Z,73.68
2023-01-28T08:27:36.643Z,73.39
2023-01-28T08:30:04.004Z,73.88
2023-01-28T08:32:30.667Z,72.82
2023-01-28T08:34:57.378Z,72.12
2023-01-28T08:37:24.346Z,71.93
2023-01-28T08:39:51.076Z,71.79
2023-01-28T08:42:17.936Z,71.29
2023-01-28T08:44:44.606Z,71.03
2023-01-28T08:47:11.302Z,71.10
2023-01-28T08:49:38.139Z,71.46
2023-01-28T08:52:04.956Z,71.24
2023-01-28T08:54:32.611Z,70.41
2023-01-28T08:56:59.794Z,71.44
2023-01-28T08:59:26.470Z,70.68
2023-01-28T09:01:53.661Z,71.38
2023-01-28T09:04:20.423Z,71.09
2023-01-28T09:06:47.015Z,70.97
2023-01-28T09:09:13.775Z,69.13
2023-01-28T09:11:40.496Z,69.87
2023-01-28T09:14:07.215Z,70.09
2023-01-28T09:16:33.809Z,68.99
2023-01-28T09:19:00.483Z,68.71
2023-01-28T09:21:28.256Z,68.25
2023-01-28T09:23:55.661Z,67.86
2023-01-28T09:26:22.712Z,67.22
2023-01-28T09:28:50.616Z,67.96
2023-01-28T09:31:17.313Z,69.42
2023-01-28T09:33:44.508Z,69.55
2023-01-28T09:36:11.503Z,68.60
2023-01-28T09:38:38.174Z,68.72
2023-01-28T09:41:32.810Z,69.36
2023-01-28T09:44:17.851Z,67.96
2023-01-28T09:46:44.933Z,67.88
2023-01-28T09:49:29.061Z,68.09
2023-01-28T09:51:56.290Z,68.36
2023-01-28T09:54:43.130Z,69.38
2023-01-28T09:57:30.315Z,69.81
2023-01-28T09:59:58.010Z,69.40
2023-01-28T10:02:42.815Z,68.00
2023-01-28T10:05:28.087Z,67.49
2023-01-28T10:08:05.915Z,69.41
2023-01-28T10:10:47.313Z,68.34
2023-01-28T10:13:22.066Z,68.58
2023-01-28T10:16:24.279Z,68.88
2023-01-28T10:18:57.203Z,68.87
2023-01-28T10:21:36.850Z,70.36
2023-01-28T10:24:11.254Z,68.37
2023-01-28T10:26:41.294Z,67.02
2023-01-28T10:29:21.756Z,67.53
2023-01-28T10:32:23.759Z,68.07
2023-01-28T10:34:52.848Z,67.71
2023-01-28T10:37:19.975Z,67.15
2023-01-28T10:39:46.867Z,67.58
2023-01-28T10:42:25.722Z,68.01
2023-01-28T10:44:53.280Z,69.01
2023-01-28T10:47:30.860Z,67.94
2023-01-28T10:49:59.283Z,66.71
2023-01-28T10:52:25.898Z,67.39
2023-01-28T10:55:06.506Z,66.19
2023-01-28T10:57:34.803Z,66.58
2023-01-28T11:00:23.461Z,66.10
2023-01-28T11:02:50.439Z,67.59
2023-01-28T11:05:20.600Z,69.52
2023-01-28T11:07:48.313Z,68.82
2023-01-28T11:10:34.237Z,67.43
2023-01-28T11:13:04.091Z,66.94
2023-01-28T11:15:31.707Z,66.65
2023-01-28T11:18:04.609Z,67.32
2023-01-28T11:20:49.153Z,66.15
2023-01-28T11:23:24.449Z,66.07
2023-01-28T11:26:06.894Z,65.76
2023-01-28T11:28:35.074Z,65.31
2023-01-28T11:31:03.418Z,65.03
2023-01-28T11:33:38.200Z,64.82
2023-01-28T11:36:41.794Z,65.46
2023-01-28T11:39:21.958Z,65.09
2023-01-28T11:41:49.105Z,65.18
2023-01-28T11:44:27.333Z,64.32
2023-01-28T11:47:19.045Z,64.31
2023-01-28T11:49:45.984Z,64.89
2023-01-28T11:52:15.241Z,65.03
2023-01-28T11:54:59.835Z,63.98
2023-01-28T11:57:51.392Z,63.37
2023-01-28T12:00:28.996Z,64.16
2023-01-28T12:03:32.631Z,63.88
2023-01-28T12:06:18.787Z,64.14
2023-01-28T12:09:02.685Z,64.10
2023-01-28T12:11:50.523Z,64.72
2023-01-28T12:14:38.586Z,65.21
2023-01-28T12:17:27.333Z,64.86
2023-01-28T12:20:07.475Z,64.88
2023-01-28T12:22:56.592Z,67.16
2023-01-28T12:25:27.714Z,66.47
2023-01-28T12:28:23.709Z,65.72
2023-01-28T12:31:02.910Z,65.85
2023-01-28T12:33:46.293Z,66.79
2023-01-28T12:36:30.160Z,65.37
2023-01-28T12:38:59.925Z,65.61
2023-01-28T12:41:34.720Z,65.03
2023-01-28T12:44:10.270Z,65.28
2023-01-28T12:46:58.747Z,64.71
2023-01-28T12:50:10.702Z,64.41
2023-01-28T12:52:44.640Z,65.61
2023-01-28T12:55:17.292Z,63.49
2023-01-28T12:57:44.733Z,64.81
2023-01-28T13:00:34.128Z,64.50
2023-01-28T13:03:09.846Z,64.02
2023-01-28T13:05:44.623Z,64.97
2023-01-28T13:08:17.595Z,64.37
2023-01-28T13:10:45.963Z,64.77
2023-01-28T13:13:31.693Z,64.64
2023-01-28T13:15:58.666Z,65.72
2023-01-28T13:18:42.432Z,65.75
2023-01-28T13:21:47.453Z,65.98
2023-01-28T13:24:15.529Z,66.20
2023-01-28T13:26:49.929Z,66.98
2023-01-28T13:29:25.551Z,66.53
2023-01-28T13:31:54.882Z,65.32
2023-01-28T13:34:36.808Z,63.76
2023-01-28T13:37:15.461Z,63.81
2023-01-28T13:39:48.288Z,64.64
2023-01-28T13:42:27.167Z,65.49
2023-01-28T13:44:54.504Z,66.13
2023-01-28T13:47:33.700Z,65.43
2023-01-28T13:50:05.273Z,65.90
2023-01-28T13:52:44.369Z,63.71
2023-01-28T13:55:11.002Z,63.05
2023-01-28T13:57:46.769Z,63.34
2023-01-28T14:00:35.205Z,64.37
2023-01-28T14:03:18.298Z,64.39
2023-01-28T14:06:00.111Z,64.61
2023-01-28T14:08:38.728Z,63.50
2023-01-28T14:11:26.950Z,63.62
2023-01-28T14:14:02.758Z,63.96
2023-01-28T14:16:35.100Z,63.30
2023-01-28T14:19:03.007Z,63.56
2023-01-28T14:21:34.263Z,63.71
2023-01-28T14:24:01.629Z,64.46
2023-01-28T14:26:54.277Z,65.58
2023-01-28T14:30:07.140Z,64.32
2023-01-28T14:32:35.235Z,68.89
2023-01-28T14:35:08.869Z,66.75
2023-01-28T14:37:35.996Z,63.42
2023-01-28T14:40:06.639Z,61.40
2023-01-28T14:42:40.120Z,61.52
2023-01-28T14:45:25.490Z,65.78
2023-01-28T14:48:16.321Z,68.23
2023-01-28T14:51:04.756Z,62.94
2023-01-28T14:53:51.058Z,65.40
2023-01-28T14:56:17.900Z,67.32
2023-01-28T14:58:53.650Z,67.20
2023-01-28T15:01:25.588Z,66.66
2023-01-28T15:03:52.503Z,62.69
2023-01-28T15:06:22.084Z,63.04
2023-01-28T15:08:48.901Z,65.13
2023-01-28T15:11:23.292Z,66.06
2023-01-28T15:13:57.056Z,69.59
2023-01-28T15:16:26.713Z,68.76
2023-01-28T15:18:53.391Z,69.53
2023-01-28T15:21:25.746Z,69.75
2023-01-28T15:23:57.978Z,66.92
2023-01-28T15:26:27.392Z,63.09
2023-01-28T15:28:55.460Z,65.30
2023-01-28T15:31:24.948Z,66.91
2023-01-28T15:34:03.551Z,63.35
2023-01-28T15:36:31.679Z,67.54
2023-01-28T15:38:58.609Z,66.88
2023-01-28T15:41:32.386Z,67.03
2023-01-28T15:43:59.589Z,61.97
2023-01-28T15:46:26.713Z,63.17
2023-01-28T15:48:59.288Z,64.50
2023-01-28T15:51:31.517Z,65.83
2023-01-28T15:54:03.288Z,62.68
2023-01-28T15:56:31.358Z,61.47
2023-01-28T15:59:27.790Z,63.69
2023-01-28T16:02:17.456Z,60.68
2023-01-28T16:04:55.351Z,59.55
2023-01-28T16:07:22.328Z,61.22
2023-01-28T16:09:54.236Z,61.01
2023-01-28T16:12:21.956Z,60.56
2023-01-28T16:14:54.397Z,60.80
2023-01-28T16:17:26.975Z,62.49
2023-01-28T16:20:05.812Z,61.08
2023-01-28T16:22:40.593Z,60.98
2023-01-28T16:25:24.724Z,64.75
2023-01-28T16:27:52.414Z,64.18
2023-01-28T16:30:19.087Z,66.32
2023-01-28T16:32:46.436Z,67.94
2023-01-28T16:35:19.590Z,66.77
2023-01-28T16:37:48.404Z,66.40
2023-01-28T16:40:20.785Z,64.25
2023-01-28T16:42:48.257Z,61.32
2023-01-28T16:45:23.889Z,62.97
2023-01-28T16:47:51.662Z,65.09
2023-01-28T16:50:19.301Z,65.49
2023-01-28T16:52:48.976Z,66.92
2023-01-28T16:55:19.177Z,67.00
2023-01-28T16:57:48.884Z,67.16
2023-01-28T17:00:21.874Z,66.06
2023-01-28T17:02:51.196Z,64.89
2023-01-28T17:05:19.093Z,64.34
2023-01-28T17:07:49.745Z,66.98
2023-01-28T17:10:17.532Z,67.40
2023-01-28T17:12:44.642Z,59.84
2023-01-28T17:15:12.169Z,58.91
2023-01-28T17:17:38.942Z,61.24
2023-01-28T17:20:06.438Z,59.60
2023-01-28T17:22:33.334Z,63.66
2023-01-28T17:24:59.949Z,65.65
2023-01-28T17:27:26.808Z,66.44
2023-01-28T17:29:53.809Z,66.54
2023-01-28T17:32:20.607Z,66.54
2023-01-28T17:34:47.920Z,64.75
2023-01-28T17:37:14.716Z,63.71
2023-01-28T17:39:41.328Z,62.10
2023-01-28T17:42:08.082Z,63.14
2023-01-28T17:44:34.993Z,63.54
2023-01-28T17:47:01.773Z,63.97
2023-01-28T17:49:28.407Z,63.58
2023-01-28T17:51:55.669Z,63.74
2023-01-28T17:54:24.190Z,63.20
2023-01-28T17:56:50.963Z,63.71
2023-01-28T17:59:17.793Z,60.43
2023-01-28T18:01:44.891Z,59.94
2023-01-28T18:04:11.753Z,62.88
2023-01-28T18:06:38.633Z,64.36
2023-01-28T18:09:05.642Z,64.12
2023-01-28T18:11:32.608Z,62.45
2023-01-28T18:13:59.380Z,62.58
2023-01-28T18:16:26.282Z,63.96
2023-01-28T18:18:52.926Z,65.26
2023-01-28T18:21:52.212Z,66.43
2023-01-28T18:24:20.646Z,66.62
2023-01-28T18:26:47.375Z,64.62
2023-01-28T18:29:14.085Z,63.85
2023-01-28T18:31:40.703Z,64.85
2023-01-28T18:34:07.928Z,65.03
2023-01-28T18:36:34.585Z,65.74
2023-01-28T18:39:01.299Z,65.84
2023-01-28T18:41:27.994Z,65.22
2023-01-28T18:43:54.678Z,64.83
2023-01-28T18:46:21.309Z,64.20
2023-01-28T18:48:48.104Z,64.14
2023-01-28T18:51:28.761Z,64.89
2023-01-28T18:53:57.745Z,65.82
2023-01-28T18:56:24.483Z,66.33
2023-01-28T18:58:56.021Z,64.69
2023-01-28T19:01:22.828Z,65.26
2023-01-28T19:03:49.555Z,66.16
2023-01-28T19:06:16.580Z,66.21
2023-01-28T19:08:43.235Z,65.85
2023-01-28T19:11:10.012Z,64.90
2023-01-28T19:13:36.618Z,64.68
2023-01-28T19:16:04.189Z,64.61
2023-01-28T19:18:31.412Z,63.41
2023-01-28T19:21:05.672Z,62.05
2023-01-28T19:23:48.976Z,63.37
2023-01-28T19:26:16.776Z,64.17
2023-01-28T19:28:43.392Z,63.31
2023-01-28T19:31:10.336Z,63.54
2023-01-28T19:33:37.023Z,60.06
2023-01-28T19:36:04.873Z,62.05
2023-01-28T19:38:32.825Z,62.23
2023-01-28T19:41:04.082Z,63.36
2023-01-28T19:43:31.080Z,63.44
2023-01-28T19:46:00.063Z,63.46
2023-01-28T19:48:27.872Z,63.23
2023-01-28T19:50:54.632Z,62.83
2023-01-28T19:53:21.738Z,61.79
2023-01-28T19:55:50.691Z,61.07
2023-01-28T19:58:18.695Z,63.03
2023-01-28T20:00:45.731Z,62.10
2023-01-28T20:03:12.795Z,63.46
2023-01-28T20:05:39.582Z,63.55
2023-01-28T20:08:06.436Z,62.96
2023-01-28T20:10:33.125Z,63.31
2023-01-28T20:12:59.836Z,62.15
2023-01-28T20:15:26.488Z,64.12
2023-01-28T20:17:54.360Z,63.97
2023-01-28T20:20:20.970Z,64.62
2023-01-28T20:22:47.682Z,64.84
2023-01-28T20:25:14.683Z,63.86
2023-01-28T20:27:41.578Z,62.86
2023-01-28T20:30:09.309Z,63.29
2023-01-28T20:32:36.271Z,63.70
2023-01-28T20:35:02.885Z,62.54
2023-01-28T20:37:29.638Z,61.19
2023-01-28T20:39:56.261Z,61.92
2023-01-28T20:42:22.929Z,62.58
2023-01-28T20:44:49.550Z,64.16
2023-01-28T20:47:16.347Z,64.76
2023-01-28T20:49:42.945Z,64.84
2023-01-28T20:52:09.658Z,65.42
2023-01-28T20:54:36.351Z,64.95
2023-01-28T20:57:05.405Z,65.25
2023-01-28T20:59:31.994Z,64.15
2023-01-28T21:01:58.705Z,64.98
2023-01-28T21:04:25.323Z,64.32
2023-01-28T21:06:52.120Z,62.56
2023-01-28T21:09:18.831Z,63.84
2023-01-28T21:11:45.536Z,64.37
2023-01-28T21:14:12.171Z,64.78
2023-01-28T21:16:38.912Z,65.52
2023-01-28T21:19:05.546Z,65.90
2023-01-28T21:21:32.286Z,66.39
2023-01-28T21:23:59.928Z,65.60
2023-01-28T21:26:27.142Z,65.07
2023-01-28T21:28:53.892Z,65.11
2023-01-28T21:31:22.749Z,64.77
2023-01-28T21:33:50.528Z,65.48
2023-01-28T21:36:18.004Z,65.77
2023-01-28T21:38:44.835Z,66.56
2023-01-28T21:41:11.788Z,67.05
2023-01-28T21:43:38.426Z,67.68
2023-01-28T21:46:05.755Z,67.79
2023-01-28T21:48:32.560Z,67.82
2023-01-28T21:51:07.043Z,67.01
2023-01-28T21:53:41.402Z,67.20
2023-01-28T21:56:09.814Z,67.14
2023-01-28T21:58:37.640Z,67.60
2023-01-28T22:01:10.501Z,68.04
2023-01-28T22:03:37.274Z,68.15
2023-01-28T22:06:03.971Z,67.52
2023-01-28T22:08:32.253Z,67.06
2023-01-28T22:11:03.655Z,66.16
2023-01-28T22:13:32.310Z,65.74
2023-01-28T22:16:07.098Z,66.17
2023-01-28T22:18:33.825Z,66.21
2023-01-28T22:21:08.588Z,66.02
2023-01-28T22:23:35.540Z,65.56
2023-01-28T22:26:02.475Z,65.23
2023-01-28T22:28:29.633Z,65.40
2023-01-28T22:31:08.755Z,65.27
2023-01-28T22:33:36.342Z,65.13
2023-01-28T22:36:12.048Z,65.13
2023-01-28T22:38:38.895Z,65.58
2023-01-28T22:41:07.403Z,64.53
2023-01-28T22:43:36.088Z,64.88
2023-01-28T22:46:04.919Z,65.63
2023-01-28T22:48:32.540Z,66.23
2023-01-28T22:51:08.587Z,65.68
2023-01-28T22:53:35.402Z,65.81
2023-01-28T22:56:02.059Z,65.68
2023-01-28T22:58:31.507Z,65.50
2023-01-28T23:00:59.104Z,65.22
2023-01-28T23:03:26.370Z,65.59
2023-01-28T23:05:58.089Z,65.42
2023-01-28T23:08:25.389Z,65.90
2023-01-28T23:10:52.004Z,65.62
2023-01-28T23:13:24.003Z,66.32
2023-01-28T23:15:51.759Z,65.46
2023-01-28T23:18:21.036Z,66.08
2023-01-28T23:20:47.838Z,66.25
2023-01-28T23:23:16.790Z,66.26
2023-01-28T23:25:43.467Z,66.03
2023-01-28T23:28:10.727Z,66.03
2023-01-28T23:30:37.914Z,66.18
2023-01-28T23:33:04.647Z,65.80
2023-01-28T23:35:31.532Z,66.29
2023-01-28T23:37:58.796Z,66.28
2023-01-28T23:40:25.625Z,66.19
2023-01-28T23:42:52.978Z,66.24
2023-01-28T23:45:20.559Z,66.74
2023-01-28T23:47:47.910Z,66.40
2023-01-28T23:50:16.040Z,66.25
2023-01-28T23:52:43.037Z,66.34
2023-01-28T23:55:09.838Z,66.42
2023-01-28T23:57:36.530Z,66.77
